Time;durP1;ratioP1;P1;durP2;ratioP2;P2;SDS_P1;SDS_P2;PMS_P1;PMS_P2;Temp;Humidity;BMP_temperature;BMP_pressure;BME280_temperature;BME280_humidity;BME280_pressure;Samples;Min_cycle;Max_cycle;Signal;HPM_P1;HPM_P2
2023/05/27 00:00:20;;;;;;;9.33;4.10;;;;;;;11.53;98.23;97153.31;7398326;19;20400;-74
2023/05/27 00:02:47;;;;;;;13.50;5.63;;;;;;;11.36;98.29;97123.41;7399564;19;20421;-74
2023/05/27 00:05:14;;;;;;;12.57;4.50;;;;;;;11.21;99.78;97120.09;7398257;19;20380;-74
2023/05/27 00:07:41;;;;;;;9.80;3.63;;;;;;;11.35;100.00;97140.38;7399597;19;20364;-75
2023/05/27 00:10:09;;;;;;;11.67;4.27;;;;;;;11.41;100.00;97152.38;7397770;19;20344;-74
2023/05/27 00:12:36;;;;;;;6.97;4.07;;;;;;;11.41;100.00;97149.72;7397599;19;21005;-74
2023/05/27 00:15:03;;;;;;;9.60;4.03;;;;;;;11.42;100.00;97151.28;7397676;19;20349;-74
2023/05/27 00:17:30;;;;;;;6.90;3.80;;;;;;;11.19;100.00;97114.34;7399821;19;20411;-74
2023/05/27 00:20:02;;;;;;;5.53;3.93;;;;;;;11.46;100.00;97160.16;7398921;19;20365;-74
2023/05/27 00:22:29;;;;;;;6.90;3.63;;;;;;;11.48;100.00;97142.09;7394587;19;21073;-74
2023/05/27 00:24:56;;;;;;;8.43;4.00;;;;;;;11.31;100.00;97136.78;7399247;19;20391;-75
2023/05/27 00:27:23;;;;;;;12.67;4.60;;;;;;;11.31;100.00;97123.56;7395941;19;21011;-75
2023/05/27 00:29:50;;;;;;;10.83;4.70;;;;;;;11.21;100.00;97141.28;7397896;19;20404;-74
2023/05/27 00:32:17;;;;;;;8.83;4.43;;;;;;;10.92;100.00;97143.72;7393636;19;20852;-74
2023/05/27 00:34:44;;;;;;;8.63;3.70;;;;;;;10.77;100.00;97129.06;7398897;19;20349;-74
2023/05/27 00:37:11;;;;;;;9.67;4.87;;;;;;;10.41;100.00;97141.69;7395600;19;20399;-74
2023/05/27 00:39:38;;;;;;;10.20;5.60;;;;;;;10.52;100.00;97145.63;7396986;19;20381;-75
2023/05/27 00:42:07;;;;;;;9.87;5.57;;;;;;;10.57;100.00;97122.47;7394835;19;20413;-75
2023/05/27 00:44:33;;;;;;;9.57;5.20;;;;;;;10.66;100.00;97128.56;7396986;19;20400;-75
2023/05/27 00:47:00;;;;;;;13.23;5.90;;;;;;;10.75;100.00;97131.25;7395486;19;20940;-75
2023/05/27 00:49:27;;;;;;;14.17;6.30;;;;;;;10.53;100.00;97107.50;7397175;19;20343;-74
2023/05/27 00:51:56;;;;;;;11.20;6.50;;;;;;;10.47;100.00;97137.84;7395259;19;20413;-74
2023/05/27 00:54:23;;;;;;;14.00;8.70;;;;;;;10.14;100.00;97150.53;7396776;19;20368;-74
2023/05/27 00:56:51;;;;;;;10.07;8.07;;;;;;;10.14;100.00;97147.88;7396871;19;20380;-75
2023/05/27 00:59:18;;;;;;;17.57;7.40;;;;;;;10.10;100.00;97123.94;7397725;19;20368;-74
2023/05/27 01:01:44;;;;;;;8.00;5.90;;;;;;;10.22;100.00;97155.13;7395455;19;20436;-74
2023/05/27 01:04:12;;;;;;;11.10;6.90;;;;;;;10.19;100.00;97137.22;7397596;19;20456;-75
2023/05/27 01:07:06;;;;;;;11.93;5.40;;;;;;;10.42;100.00;97153.84;7397380;19;20428;-75
2023/05/27 01:09:56;;;;;;;8.97;5.30;;;;;;;10.07;100.00;97145.69;7395280;19;20407;-75
2023/05/27 01:12:45;;;;;;;10.13;5.17;;;;;;;10.06;100.00;97144.13;7396460;19;20519;-75
2023/05/27 01:15:12;;;;;;;10.03;5.93;;;;;;;9.92;100.00;97123.06;7396351;19;20703;-75
2023/05/27 01:17:42;;;;;;;9.73;5.80;;;;;;;9.64;100.00;97138.25;7396623;19;20348;-75
2023/05/27 01:20:10;;;;;;;9.53;5.90;;;;;;;9.76;100.00;97135.09;7396312;19;20391;-75
2023/05/27 01:22:41;;;;;;;11.00;6.27;;;;;;;9.79;100.00;97129.19;7393212;19;20442;-75
2023/05/27 01:25:09;;;;;;;13.13;5.60;;;;;;;9.99;100.00;97133.97;7407271;19;20400;-75
2023/05/27 01:27:40;;;;;;;11.70;6.00;;;;;;;9.90;100.00;97132.38;7430372;19;20478;-75
2023/05/27 01:30:08;;;;;;;13.10;5.90;;;;;;;9.77;100.00;97102.31;7431569;19;20400;-75
2023/05/27 01:32:45;;;;;;;8.47;5.50;;;;;;;9.86;100.00;97139.31;7409408;19;20423;-75
2023/05/27 01:35:24;;;;;;;10.03;4.80;;;;;;;9.24;100.00;97108.28;7394117;19;20344;-75
2023/05/27 01:37:52;;;;;;;10.37;5.47;;;;;;;9.52;100.00;97131.94;7392805;19;20399;-75
2023/05/27 01:40:21;;;;;;;7.47;4.33;;;;;;;9.29;100.00;97094.97;7394007;19;20361;-74
2023/05/27 01:42:48;;;;;;;6.87;4.47;;;;;;;9.36;100.00;97108.53;7394878;19;20451;-75
2023/05/27 01:45:16;;;;;;;11.80;5.63;;;;;;;9.34;100.00;97115.19;7402576;19;20373;-75
2023/05/27 01:47:44;;;;;;;11.03;5.30;;;;;;;9.47;100.00;97119.63;7404548;19;20349;-75
2023/05/27 01:50:11;;;;;;;9.70;4.60;;;;;;;9.07;100.00;97114.16;7401235;19;20345;-75
2023/05/27 01:52:39;;;;;;;7.47;4.70;;;;;;;9.29;100.00;97117.94;7400922;19;20441;-75
2023/05/27 01:55:07;;;;;;;7.60;4.67;;;;;;;8.66;100.00;97087.88;7401191;19;20419;-75
2023/05/27 01:57:35;;;;;;;10.03;4.80;;;;;;;8.96;100.00;97114.72;7403386;19;20368;-75
2023/05/27 02:00:04;;;;;;;9.60;4.70;;;;;;;8.89;100.00;97121.16;7401527;19;20372;-75
2023/05/27 02:02:42;;;;;;;9.80;4.47;;;;;;;8.78;100.00;97117.16;7402474;19;20417;-75
2023/05/27 02:05:12;;;;;;;7.90;4.43;;;;;;;8.85;100.00;97127.31;7401734;19;20364;-75
2023/05/27 02:07:39;;;;;;;11.50;5.17;;;;;;;8.67;100.00;97092.06;7403631;19;20365;-75
2023/05/27 02:10:07;;;;;;;11.23;4.70;;;;;;;8.99;100.00;97125.44;7401407;19;20718;-75
2023/05/27 02:12:34;;;;;;;8.30;4.50;;;;;;;8.87;100.00;97119.88;7401627;19;20428;-74
2023/05/27 02:15:03;;;;;;;10.03;4.50;;;;;;;8.94;100.00;97088.59;7401479;19;20368;-74
2023/05/27 02:17:31;;;;;;;8.20;3.87;;;;;;;8.98;100.00;97096.72;7400416;19;20712;-75
2023/05/27 02:19:58;;;;;;;8.20;3.87;;;;;;;9.00;100.00;97086.66;7401497;19;20919;-74
2023/05/27 02:22:25;;;;;;;10.53;5.00;;;;;;;8.87;100.00;97115.38;7398098;19;20755;-75
2023/05/27 02:24:52;;;;;;;9.77;4.43;;;;;;;8.88;100.00;97110.91;7403070;19;20356;-75
2023/05/27 02:27:18;;;;;;;16.53;5.20;;;;;;;8.68;100.00;97116.56;7401622;19;20904;-75
2023/05/27 02:29:45;;;;;;;8.63;4.43;;;;;;;8.19;100.00;97079.25;7401213;19;20896;-75
2023/05/27 02:32:12;;;;;;;11.17;4.03;;;;;;;8.33;100.00;97089.81;7398548;19;20432;-75
2023/05/27 02:34:43;;;;;;;9.40;4.53;;;;;;;8.41;100.00;97094.41;7401630;19;20376;-75
2023/05/27 02:37:11;;;;;;;7.23;3.93;;;;;;;8.23;100.00;97087.34;7399652;19;20382;-75
2023/05/27 02:39:38;;;;;;;5.87;3.87;;;;;;;8.46;100.00;97112.00;7401497;19;20419;-74
2023/05/27 02:42:06;;;;;;;7.30;5.97;;;;;;;8.33;100.00;97089.03;7398125;19;20428;-74
2023/05/27 02:44:33;;;;;;;7.57;4.20;;;;;;;8.38;100.00;97073.13;7401541;19;20387;-75
2023/05/27 02:47:00;;;;;;;14.37;4.93;;;;;;;8.72;100.00;97115.69;7399576;19;20379;-74
2023/05/27 02:49:27;;;;;;;6.27;3.80;;;;;;;8.50;100.00;97099.78;7402714;19;20347;-75
2023/05/27 02:51:54;;;;;;;5.87;4.07;;;;;;;8.38;100.00;97089.72;7400102;19;20425;-75
2023/05/27 02:54:21;;;;;;;12.67;5.30;;;;;;;8.58;100.00;97114.94;7400376;19;20369;-74
2023/05/27 02:56:48;;;;;;;8.67;4.80;;;;;;;8.30;100.00;97087.75;7399906;19;20383;-75
2023/05/27 02:59:15;;;;;;;11.30;5.00;;;;;;;8.50;100.00;97110.34;7401210;19;20488;-75
2023/05/27 03:01:42;;;;;;;6.90;4.27;;;;;;;7.79;100.00;97069.44;7398289;19;20820;-75
2023/05/27 03:04:10;;;;;;;9.27;3.53;;;;;;;7.41;100.00;97101.88;7401099;19;20379;-74
2023/05/27 03:06:37;;;;;;;14.27;6.47;;;;;;;7.33;100.00;97084.09;7399771;19;20407;-75
2023/05/27 03:09:04;;;;;;;13.50;4.50;;;;;;;7.48;100.00;97093.63;7400693;19;20372;-75
2023/05/27 03:11:31;;;;;;;10.03;4.57;;;;;;;7.65;100.00;97090.47;7398347;19;20384;-75
2023/05/27 03:13:58;;;;;;;10.37;4.67;;;;;;;7.66;100.00;97061.22;7402006;19;20749;-75
2023/05/27 03:16:25;;;;;;;7.90;5.23;;;;;;;7.91;100.00;97094.25;7398908;19;20919;-75
2023/05/27 03:18:52;;;;;;;9.23;4.80;;;;;;;7.89;100.00;97070.06;7400789;19;20406;-75
2023/05/27 03:21:19;;;;;;;9.10;4.77;;;;;;;7.71;100.00;97071.66;7398440;19;20435;-75
2023/05/27 03:23:46;;;;;;;10.53;4.00;;;;;;;7.28;100.00;97049.22;7394938;19;20451;-75
2023/05/27 03:26:13;;;;;;;14.13;4.20;;;;;;;7.62;100.00;97091.06;7398611;19;20385;-75
2023/05/27 03:28:40;;;;;;;10.30;4.80;;;;;;;7.60;100.00;97093.16;7401554;19;20341;-75
2023/05/27 03:31:08;;;;;;;10.67;4.20;;;;;;;7.47;100.00;97099.16;7398253;19;20368;-75
2023/05/27 03:33:46;;;;;;;15.40;4.80;;;;;;;7.25;100.00;97079.50;7397377;19;20400;-73
2023/05/27 03:36:13;;;;;;;7.87;5.13;;;;;;;7.46;100.00;97058.91;7399214;19;20408;-73
2023/05/27 03:38:41;;;;;;;7.00;4.07;;;;;;;7.55;100.00;97096.66;7397570;19;20389;-73
2023/05/27 03:41:08;;;;;;;13.47;4.83;;;;;;;7.55;100.00;97074.84;7399866;19;20895;-73
2023/05/27 03:43:36;;;;;;;10.93;4.67;;;;;;;7.78;100.00;97110.00;7395296;19;20937;-73
2023/05/27 03:46:03;;;;;;;13.07;6.13;;;;;;;7.50;100.00;97088.88;7398433;19;20372;-73
2023/05/27 03:48:30;;;;;;;7.20;4.27;;;;;;;7.07;100.00;97088.94;7396986;19;20357;-73
2023/05/27 03:50:57;;;;;;;12.63;4.33;;;;;;;7.25;100.00;97105.81;7398501;19;20368;-73
2023/05/27 03:53:24;;;;;;;11.37;4.70;;;;;;;7.31;100.00;97109.13;7397117;19;20349;-73
2023/05/27 03:55:51;;;;;;;7.87;4.20;;;;;;;7.17;100.00;97069.63;7400020;19;20876;-73
2023/05/27 03:58:19;;;;;;;10.10;5.10;;;;;;;7.43;100.00;97085.03;7396890;19;20372;-75
2023/05/27 04:00:47;;;;;;;7.80;4.57;;;;;;;7.38;100.00;97086.69;7398734;19;20392;-75
2023/05/27 04:03:15;;;;;;;12.90;4.77;;;;;;;7.42;100.00;97092.13;7394685;19;20416;-75
2023/05/27 04:05:42;;;;;;;7.20;4.97;;;;;;;7.57;100.00;97117.44;7396443;19;20417;-75
2023/05/27 04:08:09;;;;;;;9.77;4.17;;;;;;;7.62;100.00;97126.03;7397090;19;20376;-75
2023/05/27 04:10:36;;;;;;;7.00;4.37;;;;;;;7.53;100.00;97088.28;7397994;19;20725;-75
2023/05/27 04:13:03;;;;;;;6.70;4.27;;;;;;;7.49;100.00;97089.94;7395358;19;20441;-75
2023/05/27 04:15:30;;;;;;;11.27;4.57;;;;;;;7.63;100.00;97103.91;7398425;19;20435;-75
2023/05/27 04:17:57;;;;;;;7.10;3.63;;;;;;;7.78;100.00;97097.63;7396981;19;20387;-73
2023/05/27 04:20:24;;;;;;;5.70;4.23;;;;;;;7.59;100.00;97094.25;7398385;19;20409;-73
2023/05/27 04:22:56;;;;;;;7.60;3.90;;;;;;;8.02;100.00;97123.03;7394841;19;20417;-74
2023/05/27 04:25:23;;;;;;;6.30;4.20;;;;;;;8.12;100.00;97109.69;7398494;19;20713;-74
2023/05/27 04:28:05;;;;;;;8.37;4.30;;;;;;;8.34;100.00;97127.47;7396933;19;20372;-74
2023/05/27 04:30:34;;;;;;;13.33;4.60;;;;;;;8.37;100.00;97127.69;7395637;19;20416;-73
2023/05/27 04:33:07;;;;;;;5.40;3.40;;;;;;;8.19;100.00;97091.66;7395766;19;20444;-74
2023/05/27 04:35:34;;;;;;;6.33;4.47;;;;;;;8.53;100.00;97126.34;7395481;19;20400;-75
2023/05/27 04:38:02;;;;;;;6.50;4.60;;;;;;;8.41;100.00;97125.25;7397239;19;20443;-74
2023/05/27 04:40:41;;;;;;;7.70;3.90;;;;;;;8.09;100.00;97074.16;7395736;19;20368;-74
2023/05/27 04:43:24;;;;;;;5.30;4.27;;;;;;;8.73;100.00;97135.72;7396163;19;20432;-74
2023/05/27 04:45:52;;;;;;;6.10;4.63;;;;;;;8.54;100.00;97119.97;7396218;19;20928;-74
2023/05/27 04:48:23;;;;;;;12.20;4.77;;;;;;;8.78;100.00;97138.25;7397993;19;20364;-74
2023/05/27 04:50:52;;;;;;;12.20;4.37;;;;;;;8.41;100.00;97104.16;7396481;19;20380;-74
2023/05/27 04:53:20;;;;;;;10.20;4.30;;;;;;;8.69;100.00;97110.25;7393001;19;20440;-74
2023/05/27 04:55:47;;;;;;;10.87;4.70;;;;;;;9.16;100.00;97132.72;7396755;19;20369;-74
2023/05/27 04:58:15;;;;;;;12.47;4.20;;;;;;;9.25;100.00;97115.13;7394713;19;20388;-74
2023/05/27 05:00:53;;;;;;;11.47;5.10;;;;;;;9.72;100.00;97137.53;7396657;19;20373;-74
2023/05/27 05:03:36;;;;;;;8.30;4.40;;;;;;;9.57;100.00;97063.97;7393949;19;20432;-73
2023/05/27 05:06:05;;;;;;;5.73;3.63;;;;;;;10.14;100.00;97124.88;7397085;19;20372;-74
2023/05/27 05:08:32;;;;;;;10.20;4.47;;;;;;;10.37;100.00;97120.38;7395529;19;20368;-73
2023/05/27 05:11:00;;;;;;;13.53;5.40;;;;;;;10.54;100.00;97140.78;7394033;19;20380;-74
2023/05/27 05:13:28;;;;;;;12.20;4.40;;;;;;;10.64;100.00;97136.03;7395594;19;20434;-74
2023/05/27 05:15:56;;;;;;;7.00;3.97;;;;;;;10.82;100.00;97144.03;7394220;19;20737;-74
2023/05/27 05:18:23;;;;;;;9.30;4.53;;;;;;;10.94;100.00;97120.38;7395343;19;20375;-74
2023/05/27 05:20:51;;;;;;;8.53;3.90;;;;;;;11.05;100.00;97126.94;7393960;19;20368;-74
2023/05/27 05:23:27;;;;;;;11.43;4.23;;;;;;;11.28;100.00;97135.53;7394839;19;20992;-74
2023/05/27 05:25:58;;;;;;;11.10;4.57;;;;;;;11.36;100.00;97148.03;7394517;19;20376;-74
2023/05/27 05:28:25;;;;;;;7.50;3.60;;;;;;;11.31;100.00;97126.97;7395833;19;20361;-74
2023/05/27 05:30:52;;;;;;;11.53;4.73;;;;;;;11.25;100.00;97126.34;7393640;19;20409;-74
2023/05/27 05:33:20;;;;;;;13.60;4.30;;;;;;;11.55;100.00;97155.66;7394323;19;20428;-74
2023/05/27 05:35:49;;;;;;;5.87;3.97;;;;;;;11.39;100.00;97125.44;7394689;19;20364;-74
2023/05/27 05:38:22;;;;;;;9.90;5.00;;;;;;;11.55;100.00;97166.25;7396152;19;21004;-74
2023/05/27 05:40:52;;;;;;;10.57;4.83;;;;;;;11.63;100.00;97151.47;7394634;19;20348;-74
2023/05/27 05:43:20;;;;;;;5.63;3.63;;;;;;;11.46;100.00;97126.50;7394349;19;20444;-74
2023/05/27 05:45:47;;;;;;;8.27;4.37;;;;;;;11.62;100.00;97131.34;7394355;19;20371;-74
2023/05/27 05:48:17;;;;;;;10.70;4.07;;;;;;;11.75;100.00;97130.38;7396178;19;20744;-74
2023/05/27 05:50:44;;;;;;;10.30;4.13;;;;;;;12.04;100.00;97145.69;7394823;19;20382;-74
2023/05/27 05:53:12;;;;;;;6.30;4.33;;;;;;;11.74;100.00;97126.97;7391568;19;20434;-73
2023/05/27 05:55:39;;;;;;;6.63;3.77;;;;;;;12.32;100.00;97157.47;7394525;19;20902;-74
2023/05/27 05:58:06;;;;;;;9.30;3.87;;;;;;;12.26;99.71;97126.88;7392878;19;20376;-74
2023/05/27 06:00:33;;;;;;;6.43;4.47;;;;;;;12.56;97.07;97141.00;7394511;19;20460;-74
2023/05/27 06:03:20;;;;;;;9.13;4.63;;;;;;;12.49;95.37;97148.66;7392984;19;21001;-74
2023/05/27 06:05:52;;;;;;;10.07;3.47;;;;;;;12.79;96.75;97164.63;7395081;19;20976;-74
2023/05/27 06:08:19;;;;;;;9.90;4.50;;;;;;;12.91;96.20;97144.25;7393581;19;20360;-74
2023/05/27 06:10:55;;;;;;;10.17;4.67;;;;;;;12.75;95.69;97102.66;7395262;19;20939;-74
2023/05/27 06:13:22;;;;;;;8.60;4.70;;;;;;;13.23;95.01;97142.09;7392097;19;20789;-74
2023/05/27 06:15:51;;;;;;;11.27;4.70;;;;;;;13.46;93.96;97153.16;7395362;19;20373;-74
2023/05/27 06:18:18;;;;;;;7.17;4.03;;;;;;;13.68;91.73;97152.06;7394150;19;20381;-74
2023/05/27 06:20:45;;;;;;;9.03;4.43;;;;;;;14.01;90.79;97171.44;7395494;19;20380;-74
2023/05/27 06:23:12;;;;;;;8.30;4.00;;;;;;;13.57;90.83;97138.38;7391555;19;20432;-74
2023/05/27 06:25:59;;;;;;;8.20;4.10;;;;;;;13.35;90.13;97158.06;7392788;19;20376;-74
2023/05/27 06:28:31;;;;;;;8.70;3.90;;;;;;;13.61;89.54;97176.47;7394405;19;20731;-74
2023/05/27 06:30:57;;;;;;;10.30;4.90;;;;;;;13.70;90.99;97155.94;7399846;19;20387;-74
2023/05/27 06:33:24;;;;;;;9.27;4.33;;;;;;;13.66;89.66;97168.34;7403042;19;20364;-74
2023/05/27 06:35:51;;;;;;;8.60;4.00;;;;;;;13.89;90.20;97145.63;7400272;19;20412;-75
2023/05/27 06:38:18;;;;;;;11.67;6.07;;;;;;;13.84;88.00;97151.13;7401604;19;20686;-74
2023/05/27 06:40:48;;;;;;;6.93;4.00;;;;;;;14.33;86.62;97164.56;7400065;19;20388;-74
2023/05/27 06:43:16;;;;;;;13.47;4.37;;;;;;;14.36;86.53;97166.56;7399321;19;20444;-74
2023/05/27 06:46:06;;;;;;;11.00;3.90;;;;;;;14.36;86.83;97179.88;7401363;19;20373;-74
2023/05/27 06:48:44;;;;;;;11.73;3.90;;;;;;;14.28;86.60;97161.34;7399330;19;20372;-74
2023/05/27 06:51:11;;;;;;;9.33;3.80;;;;;;;14.48;87.72;97142.69;7400661;19;20369;-74
2023/05/27 06:53:38;;;;;;;6.10;3.67;;;;;;;14.84;86.04;97156.34;7401405;19;20373;-75
2023/05/27 06:56:10;;;;;;;11.80;4.83;;;;;;;15.22;84.08;97185.28;7401489;19;20372;-74
2023/05/27 06:58:55;;;;;;;9.67;4.33;;;;;;;15.01;83.36;97196.06;7403827;19;20410;-75
2023/05/27 07:01:22;;;;;;;8.30;3.90;;;;;;;14.53;83.93;97183.47;7436870;19;20425;-80
2023/05/27 07:03:52;;;;;;;7.27;4.57;;;;;;;14.29;84.13;97165.53;7435041;19;20385;-79
2023/05/27 07:06:28;;;;;;;9.93;3.93;;;;;;;14.66;83.19;97190.38;7429922;19;20382;-74
2023/05/27 07:08:56;;;;;;;10.73;5.57;;;;;;;15.01;82.50;97170.22;7401041;19;20372;-74
2023/05/27 07:11:29;;;;;;;14.47;3.70;;;;;;;14.93;80.75;97194.28;7398745;19;20747;-74
2023/05/27 07:14:00;;;;;;;7.83;4.70;;;;;;;14.88;80.90;97194.53;7401303;19;20356;-74
2023/05/27 07:16:31;;;;;;;11.13;4.37;;;;;;;14.32;81.19;97147.06;7399723;19;20443;-74
2023/05/27 07:18:58;;;;;;;9.13;4.07;;;;;;;14.69;81.89;97182.53;7401136;19;20372;-74
2023/05/27 07:21:28;;;;;;;8.13;4.10;;;;;;;14.71;83.27;97156.34;7398563;19;20751;-74
2023/05/27 07:23:58;;;;;;;10.43;3.97;;;;;;;15.15;82.52;97174.44;7400089;19;20401;-74
2023/05/27 07:26:31;;;;;;;10.57;5.10;;;;;;;15.09;79.87;97181.88;7400013;19;20482;-74
2023/05/27 07:28:59;;;;;;;9.33;4.10;;;;;;;15.07;81.85;97187.50;7398458;19;20373;-74
2023/05/27 07:31:49;;;;;;;9.30;4.40;;;;;;;15.19;81.09;97122.00;7399475;19;20436;-74
2023/05/27 07:34:18;;;;;;;11.50;5.03;;;;;;;15.20;80.66;97166.19;7398735;19;20393;-74
2023/05/27 07:36:45;;;;;;;16.63;6.07;;;;;;;15.43;79.98;97169.16;7400195;19;20408;-75
2023/05/27 07:39:12;;;;;;;15.40;4.83;;;;;;;15.76;81.55;97182.31;7398344;19;20389;-75
2023/05/27 07:41:39;;;;;;;11.53;6.03;;;;;;;15.85;80.11;97182.97;7398817;19;20450;-75
2023/05/27 07:44:07;;;;;;;9.00;4.60;;;;;;;15.62;79.48;97172.81;7397026;19;20708;-74
2023/05/27 07:46:34;;;;;;;10.70;4.33;;;;;;;15.21;78.73;97144.53;7400170;19;20372;-74
2023/05/27 07:49:01;;;;;;;9.67;4.70;;;;;;;15.90;80.24;97169.41;7398189;19;20376;-74
2023/05/27 07:51:30;;;;;;;11.57;4.80;;;;;;;15.62;79.84;97172.03;7398816;19;20443;-73
2023/05/27 07:53:59;;;;;;;11.60;6.23;;;;;;;15.69;78.07;97148.25;7398037;19;20413;-74
2023/05/27 07:56:26;;;;;;;12.80;5.13;;;;;;;16.17;76.32;97151.81;7399620;19;20380;-72
2023/05/27 07:58:53;;;;;;;10.77;5.50;;;;;;;16.43;77.56;97170.03;7400378;19;20355;-72
2023/05/27 08:01:21;;;;;;;6.90;5.00;;;;;;;16.75;77.00;97142.22;7399002;19;20535;-71
2023/05/27 08:03:52;;;;;;;12.53;4.93;;;;;;;16.92;75.22;97153.66;7397095;19;20440;-72
2023/05/27 08:06:38;;;;;;;14.73;4.90;;;;;;;16.45;73.74;97151.75;7397107;19;20372;-73
2023/05/27 08:09:20;;;;;;;9.33;4.30;;;;;;;16.40;72.76;97128.75;7399054;19;20365;-75
2023/05/27 08:12:13;;;;;;;8.43;4.00;;;;;;;16.90;73.57;97150.56;7394965;19;20413;-74
2023/05/27 08:14:49;;;;;;;10.53;4.53;;;;;;;17.22;71.98;97154.72;7397285;19;20367;-74
2023/05/27 08:17:28;;;;;;;8.40;4.50;;;;;;;16.65;71.53;97117.91;7399490;19;20363;-74
2023/05/27 08:19:58;;;;;;;13.43;5.13;;;;;;;17.27;72.29;97130.41;7399296;19;20389;-76
2023/05/27 08:22:33;;;;;;;11.17;5.33;;;;;;;17.59;72.07;97144.44;7395000;19;20432;-75
2023/05/27 08:25:19;;;;;;;10.03;3.83;;;;;;;17.68;70.92;97126.31;7397402;19;20359;-74
2023/05/27 08:28:03;;;;;;;10.17;4.27;;;;;;;18.33;72.48;97133.63;7394243;19;20874;-75
2023/05/27 08:30:51;;;;;;;16.10;5.37;;;;;;;17.50;70.40;97135.88;7393546;19;20835;-74
2023/05/27 08:33:26;;;;;;;11.10;4.50;;;;;;;16.94;71.36;97119.38;7395911;19;20439;-74
2023/05/27 08:35:53;;;;;;;5.77;4.20;;;;;;;17.40;72.02;97131.84;7396762;19;20400;-75
2023/05/27 08:38:23;;;;;;;8.40;4.67;;;;;;;17.37;71.48;97119.19;7396033;19;20920;-75
2023/05/27 08:40:55;;;;;;;10.43;5.07;;;;;;;17.92;70.89;97100.41;7396944;19;20422;-75
2023/05/27 08:43:22;;;;;;;8.33;5.93;;;;;;;17.82;71.02;97135.75;7396092;19;20509;-74
2023/05/27 08:45:50;;;;;;;7.20;4.70;;;;;;;18.01;69.76;97114.31;7393791;19;20394;-75
2023/05/27 08:48:18;;;;;;;11.87;4.10;;;;;;;18.40;69.19;97125.69;7394770;19;20371;-74
2023/05/27 08:50:46;;;;;;;10.07;5.50;;;;;;;17.68;69.06;97120.16;7396862;19;20394;-74
2023/05/27 08:53:15;;;;;;;9.30;4.50;;;;;;;17.75;68.76;97131.03;7392425;19;20445;-74
2023/05/27 08:55:43;;;;;;;12.90;4.70;;;;;;;17.96;68.54;97119.97;7396250;19;20376;-74
2023/05/27 08:58:12;;;;;;;9.40;5.20;;;;;;;17.87;69.77;97108.69;7394936;19;20386;-75
2023/05/27 09:00:44;;;;;;;9.33;4.40;;;;;;;17.79;69.66;97115.84;7396516;19;20750;-75
2023/05/27 09:03:16;;;;;;;8.73;5.23;;;;;;;18.53;67.92;97115.59;7393666;19;20431;-75
2023/05/27 09:05:44;;;;;;;14.43;4.93;;;;;;;19.23;67.89;97119.69;7395122;19;20416;-75
2023/05/27 09:08:11;;;;;;;9.33;4.50;;;;;;;19.05;66.11;97127.50;7395252;19;20415;-75
2023/05/27 09:10:40;;;;;;;8.53;5.07;;;;;;;18.77;64.64;97127.84;7398300;19;20456;-75
2023/05/27 09:13:08;;;;;;;8.37;4.40;;;;;;;18.59;64.70;97104.22;7393355;19;20417;-75
2023/05/27 09:15:35;;;;;;;12.33;4.70;;;;;;;18.64;65.56;97121.91;7396663;19;20416;-74
2023/05/27 09:18:05;;;;;;;8.60;4.33;;;;;;;18.39;66.46;97108.09;7395025;19;20408;-75
2023/05/27 09:20:32;;;;;;;11.60;4.67;;;;;;;18.60;65.13;97103.09;7398056;19;20697;-75
2023/05/27 09:23:01;;;;;;;7.90;3.70;;;;;;;18.59;65.33;97100.78;7393500;19;20425;-75
2023/05/27 09:25:28;;;;;;;7.40;3.97;;;;;;;18.91;66.16;97122.72;7397083;19;20915;-75
2023/05/27 09:27:56;;;;;;;10.40;4.33;;;;;;;18.20;65.34;97100.91;7395077;19;20414;-75
2023/05/27 09:30:25;;;;;;;8.70;4.23;;;;;;;18.46;66.78;97096.75;7396862;19;20377;-75
2023/05/27 09:33:00;;;;;;;6.93;3.90;;;;;;;18.44;64.68;97102.44;7393778;19;20979;-74
2023/05/27 09:35:27;;;;;;;6.90;4.40;;;;;;;18.06;64.94;97081.91;7395462;19;20384;-74
2023/05/27 09:37:54;;;;;;;11.20;5.20;;;;;;;18.15;65.15;97109.22;7396695;19;20388;-74
2023/05/27 09:40:21;;;;;;;10.10;4.77;;;;;;;18.14;63.82;97099.63;7393996;19;20377;-74
2023/05/27 09:42:49;;;;;;;9.60;5.00;;;;;;;18.71;63.55;97081.09;7394172;19;20420;-75
2023/05/27 09:45:18;;;;;;;12.37;4.33;;;;;;;18.59;63.89;97092.72;7392784;19;20387;-75
2023/05/27 09:47:52;;;;;;;8.90;4.20;;;;;;;18.28;65.94;97038.28;7397397;19;20385;-75
2023/05/27 09:50:21;;;;;;;8.13;5.53;;;;;;;18.35;64.06;97069.78;7394502;19;20386;-74
2023/05/27 09:52:49;;;;;;;14.40;5.10;;;;;;;18.44;64.18;97064.19;7395628;19;20914;-74
2023/05/27 09:55:31;;;;;;;11.10;5.23;;;;;;;18.48;62.07;97062.31;7394899;19;20369;-74
2023/05/27 09:57:58;;;;;;;11.87;4.50;;;;;;;19.11;60.52;97083.94;7397706;19;20342;-74
2023/05/27 10:00:27;;;;;;;10.20;4.70;;;;;;;18.71;60.60;97065.00;7395958;19;20393;-75
2023/05/27 10:02:57;;;;;;;9.03;4.20;;;;;;;18.68;60.85;97063.78;7396572;19;20925;-75
2023/05/27 10:05:26;;;;;;;6.47;4.10;;;;;;;18.80;60.52;97044.84;7401584;19;20697;-75
2023/05/27 10:07:53;;;;;;;8.23;3.73;;;;;;;18.98;60.08;97045.09;7402510;19;20379;-75
2023/05/27 10:10:40;;;;;;;5.60;3.90;;;;;;;19.32;58.07;97069.25;7405215;19;20348;-75
2023/05/27 10:13:08;;;;;;;9.33;4.83;;;;;;;19.80;58.13;97054.13;7400825;19;21048;-74
2023/05/27 10:15:35;;;;;;;10.60;4.40;;;;;;;19.16;58.13;97053.34;7404727;19;20388;-75
2023/05/27 10:18:10;;;;;;;10.33;4.10;;;;;;;19.24;57.18;97076.47;7402083;19;20369;-75
2023/05/27 10:20:42;;;;;;;8.60;4.77;;;;;;;19.20;58.04;97073.72;7401370;19;20376;-75
2023/05/27 10:23:20;;;;;;;9.77;3.50;;;;;;;19.53;59.96;97066.84;7400325;19;20426;-75
2023/05/27 10:25:49;;;;;;;8.27;4.83;;;;;;;19.25;57.50;97067.28;7398608;19;20941;-75
2023/05/27 10:28:31;;;;;;;9.70;4.00;;;;;;;19.57;57.96;97061.53;7403332;19;20742;-74
2023/05/27 10:31:14;;;;;;;7.00;4.10;;;;;;;19.93;58.61;97057.31;7401868;19;20378;-75
2023/05/27 10:33:47;;;;;;;8.03;4.00;;;;;;;19.58;57.83;97041.63;7400869;19;20473;-75
2023/05/27 10:36:22;;;;;;;7.93;4.27;;;;;;;19.77;57.42;97052.19;7402734;19;20366;-74
2023/05/27 10:38:57;;;;;;;6.47;4.20;;;;;;;19.72;59.58;97047.13;7401412;19;20349;-74
2023/05/27 10:41:24;;;;;;;12.83;4.80;;;;;;;19.29;59.30;97048.53;7401361;19;20414;-74
2023/05/27 10:43:59;;;;;;;7.67;4.10;;;;;;;19.33;57.28;97050.13;7400347;19;20402;-74
2023/05/27 10:46:26;;;;;;;12.30;4.53;;;;;;;20.05;56.79;97055.13;7401811;19;21080;-75
2023/05/27 10:48:53;;;;;;;5.00;4.37;;;;;;;20.26;56.15;97057.22;7400025;19;20383;-73
2023/05/27 10:51:31;;;;;;;9.63;4.23;;;;;;;20.47;55.06;97037.84;7401432;19;20378;-74
2023/05/27 10:54:03;;;;;;;10.00;4.33;;;;;;;20.46;54.38;97038.22;7400562;19;20358;-75
2023/05/27 10:56:52;;;;;;;11.13;4.57;;;;;;;20.38;56.32;97032.75;7399932;19;20360;-75
2023/05/27 10:59:21;;;;;;;10.80;4.30;;;;;;;20.44;56.05;97040.53;7400899;19;20371;-74
2023/05/27 11:01:55;;;;;;;10.20;4.70;;;;;;;20.27;55.55;97039.19;7400198;19;20380;-75
2023/05/27 11:04:22;;;;;;;9.77;4.03;;;;;;;20.95;55.53;97019.69;7401323;19;20359;-74
2023/05/27 11:07:00;;;;;;;9.70;5.00;;;;;;;20.37;57.52;97041.97;7399763;19;20353;-73
2023/05/27 11:09:42;;;;;;;8.23;4.60;;;;;;;20.02;55.67;97039.75;7399090;19;20391;-74
2023/05/27 11:12:16;;;;;;;12.17;4.57;;;;;;;20.72;57.79;97015.75;7399413;19;20418;-74
2023/05/27 11:14:44;;;;;;;9.30;5.00;;;;;;;21.06;55.81;97014.38;7399986;19;20354;-74
2023/05/27 11:17:12;;;;;;;11.17;6.00;;;;;;;20.49;55.88;97019.44;7402538;19;20343;-75
2023/05/27 11:19:40;;;;;;;6.70;5.13;;;;;;;21.16;54.53;97029.03;7399015;19;20382;-74
2023/05/27 11:22:10;;;;;;;5.63;3.20;;;;;;;20.59;53.87;97024.13;7399097;19;20957;-74
2023/05/27 11:24:38;;;;;;;9.27;4.50;;;;;;;21.05;54.32;96987.84;7399994;19;20434;-74
2023/05/27 11:27:15;;;;;;;8.17;4.00;;;;;;;21.67;54.29;97018.06;7400424;19;20407;-75
2023/05/27 11:29:51;;;;;;;7.80;4.43;;;;;;;21.85;53.13;97015.41;7401377;19;20369;-73
2023/05/27 11:32:19;;;;;;;6.10;3.70;;;;;;;21.86;54.92;96992.72;7397342;19;20502;-73
2023/05/27 11:34:47;;;;;;;8.07;4.47;;;;;;;22.05;53.28;96999.66;7396736;19;20398;-74
2023/05/27 11:37:15;;;;;;;10.03;3.73;;;;;;;21.25;54.70;96994.50;7398632;19;20383;-73
2023/05/27 11:39:52;;;;;;;7.37;4.47;;;;;;;21.41;55.20;96996.88;7400309;19;20456;-74
2023/05/27 11:42:23;;;;;;;8.03;3.97;;;;;;;21.51;56.08;97001.50;7396706;19;20395;-74